Aérodrome :
LOGIN :

S'inscrire | Disclaimer

   EN    FR    IT 

 










Légende :    VFR   VFR Marginal   IFR   IFR Intensif   IFR Très Intensif
Visi : 
Plafond : 
>= 8 km
>= 3000ft
5 à 8 km
1000 à 3000 ft
1500m à 5 km
500 à 1000 ft
800 à 1500m
200 à 500 ft
< 800m
< 200 ft
Symboles :   Orages  Brouillard  Fortes neiges  Fortes précipitations  Vent > 20 kt
SIGMETs :   Divers  Orages  Givrage  Turbulence  Onde Orograph.  Cendres Volcan.







- Altitude de l'aérodrome : 586 ft


LIMN - Cameri Air Force Base

DERNIER METAR :
  • 261655Z 03007KT 3500 -RA BR SCT005 BKN020 11/09 Q1007 RMK OVC VIS MIN 3500 YLO

METARs EXPIRÉS :
  • 261555Z 05006KT 2500 -RA BR SCT005 BKN020 12/10 Q1007 RMK OVC VIS MIN 2500 YLO
  • 261455Z 06007KT 4000 -RA BR SCT005 BKN020 12/10 Q1006 RMK OVC VIS MIN 4000 GRN

TAF TAF LIMN
Valide du 26 à 18h jusqu'au 27 à 03h UTC


261700Z 2618/2703 16004KT 2000 RA BR BKN005 BKN015
Pas de NOTAMs connus pour ce terrain.
1 SIGMET publié pour la FIR Milano (LIMM) :
 
Orages noyés dans la masse
LIMM SIGMET 6 VALID 261635/261835 LIMM- LIMM MILANO FIR EMBD TS FCST WI N4347 E00735 - N4310 E00944 - N4335 E01016 - N4342 E01110 - N4337 E01210 - N4437 E01013 - N4537 E01352 - N4625 E01316 - N4642 E01221 - N4633 E01110 - N4552 E00859 - N4347 E00735 TOP FL300 STNR NC=



MET'MAP, la Météo Aéronautique d'un coup d'oeil ! - Copyright ORBIFLY Décembre 2007 - Disclaimer

ORBIFLY MET'MAP TEAM :

Programmation & Développement : Alexandra Zaïnal
Conception & Développement : Baudouin d'Aumeries
Co-Programmation & Développement : Marc-Olivier Méhu
Soutien technique & logistique : Manuel Goepfert

Contact : metmap@orbifly.com




SOURCES & CREDITS :

   NOAA